sensor_id;sensor_type;location;lat;lon;timestamp;P1;durP1;ratioP1;P2;durP2;ratioP2
59872;SDS011;50750;51.636;4.948;2022-10-16T00:00:43;2.40;;;1.20;;
59872;SDS011;50750;51.636;4.948;2022-10-16T00:03:29;2.50;;;1.40;;
59872;SDS011;50750;51.636;4.948;2022-10-16T00:05:58;1.80;;;1.00;;
59872;SDS011;50750;51.636;4.948;2022-10-16T00:08:26;2.50;;;1.10;;
59872;SDS011;50750;51.636;4.948;2022-10-16T00:10:52;2.40;;;1.20;;
59872;SDS011;50750;51.636;4.948;2022-10-16T00:13:18;2.40;;;1.20;;
59872;SDS011;50750;51.636;4.948;2022-10-16T00:15:46;3.00;;;1.10;;
59872;SDS011;50750;51.636;4.948;2022-10-16T00:18:13;2.60;;;1.30;;
59872;SDS011;50750;51.636;4.948;2022-10-16T00:20:40;3.20;;;1.10;;
59872;SDS011;50750;51.636;4.948;2022-10-16T00:23:07;2.60;;;1.30;;
59872;SDS011;50750;51.636;4.948;2022-10-16T00:25:34;1.90;;;1.00;;
59872;SDS011;50750;51.636;4.948;2022-10-16T00:28:00;2.30;;;0.90;;
59872;SDS011;50750;51.636;4.948;2022-10-16T00:30:27;3.50;;;1.20;;
59872;SDS011;50750;51.636;4.948;2022-10-16T00:32:54;2.20;;;1.20;;
59872;SDS011;50750;51.636;4.948;2022-10-16T00:35:21;2.30;;;1.20;;
59872;SDS011;50750;51.636;4.948;2022-10-16T00:37:47;2.80;;;1.30;;
59872;SDS011;50750;51.636;4.948;2022-10-16T00:40:14;1.90;;;1.10;;
59872;SDS011;50750;51.636;4.948;2022-10-16T00:42:41;2.30;;;1.20;;
59872;SDS011;50750;51.636;4.948;2022-10-16T00:45:08;2.10;;;1.10;;
59872;SDS011;50750;51.636;4.948;2022-10-16T00:47:42;2.80;;;1.30;;
59872;SDS011;50750;51.636;4.948;2022-10-16T00:50:13;2.20;;;1.10;;
59872;SDS011;50750;51.636;4.948;2022-10-16T00:52:46;2.00;;;1.10;;
59872;SDS011;50750;51.636;4.948;2022-10-16T00:55:14;2.10;;;1.20;;
59872;SDS011;50750;51.636;4.948;2022-10-16T00:57:42;2.40;;;1.20;;
59872;SDS011;50750;51.636;4.948;2022-10-16T01:00:10;2.50;;;1.00;;
59872;SDS011;50750;51.636;4.948;2022-10-16T01:02:40;2.50;;;1.10;;
59872;SDS011;50750;51.636;4.948;2022-10-16T01:05:06;2.60;;;1.10;;
59872;SDS011;50750;51.636;4.948;2022-10-16T01:07:45;2.40;;;1.00;;
59872;SDS011;50750;51.636;4.948;2022-10-16T01:13:03;2.10;;;1.10;;
59872;SDS011;50750;51.636;4.948;2022-10-16T01:15:41;2.10;;;1.20;;
59872;SDS011;50750;51.636;4.948;2022-10-16T01:18:14;2.70;;;1.30;;
59872;SDS011;50750;51.636;4.948;2022-10-16T01:20:52;2.50;;;1.10;;
59872;SDS011;50750;51.636;4.948;2022-10-16T01:29:15;2.70;;;1.20;;
59872;SDS011;50750;51.636;4.948;2022-10-16T01:31:47;1.90;;;1.00;;
59872;SDS011;50750;51.636;4.948;2022-10-16T01:34:33;1.90;;;1.30;;
59872;SDS011;50750;51.636;4.948;2022-10-16T01:37:14;1.80;;;1.00;;
59872;SDS011;50750;51.636;4.948;2022-10-16T01:39:46;2.30;;;1.10;;
59872;SDS011;50750;51.636;4.948;2022-10-16T01:42:19;2.10;;;0.90;;
59872;SDS011;50750;51.636;4.948;2022-10-16T01:44:50;2.10;;;0.90;;
59872;SDS011;50750;51.636;4.948;2022-10-16T01:47:18;2.80;;;1.20;;
59872;SDS011;50750;51.636;4.948;2022-10-16T01:49:48;2.00;;;0.90;;
59872;SDS011;50750;51.636;4.948;2022-10-16T01:52:18;2.30;;;1.20;;
59872;SDS011;50750;51.636;4.948;2022-10-16T01:54:49;2.70;;;0.90;;
59872;SDS011;50750;51.636;4.948;2022-10-16T01:57:19;2.20;;;1.10;;
59872;SDS011;50750;51.636;4.948;2022-10-16T01:59:48;1.70;;;0.90;;
59872;SDS011;50750;51.636;4.948;2022-10-16T02:02:19;1.90;;;1.00;;
59872;SDS011;50750;51.636;4.948;2022-10-16T02:07:57;1.80;;;0.90;;
59872;SDS011;50750;51.636;4.948;2022-10-16T02:10:24;2.40;;;1.10;;
59872;SDS011;50750;51.636;4.948;2022-10-16T02:12:56;2.40;;;1.00;;
59872;SDS011;50750;51.636;4.948;2022-10-16T02:15:27;1.30;;;0.90;;
59872;SDS011;50750;51.636;4.948;2022-10-16T02:17:53;2.40;;;1.00;;
59872;SDS011;50750;51.636;4.948;2022-10-16T02:20:20;2.10;;;0.90;;
59872;SDS011;50750;51.636;4.948;2022-10-16T02:22:51;2.10;;;0.90;;
59872;SDS011;50750;51.636;4.948;2022-10-16T02:25:53;1.60;;;0.90;;
59872;SDS011;50750;51.636;4.948;2022-10-16T02:28:16;1.80;;;0.90;;
59872;SDS011;50750;51.636;4.948;2022-10-16T02:30:49;1.70;;;0.80;;
59872;SDS011;50750;51.636;4.948;2022-10-16T02:33:19;1.70;;;0.90;;
59872;SDS011;50750;51.636;4.948;2022-10-16T02:35:48;1.90;;;1.00;;
59872;SDS011;50750;51.636;4.948;2022-10-16T02:38:17;1.40;;;0.90;;
59872;SDS011;50750;51.636;4.948;2022-10-16T02:40:45;2.00;;;1.00;;
59872;SDS011;50750;51.636;4.948;2022-10-16T02:43:12;2.20;;;1.00;;
59872;SDS011;50750;51.636;4.948;2022-10-16T02:45:39;1.80;;;1.00;;
59872;SDS011;50750;51.636;4.948;2022-10-16T02:48:06;1.70;;;0.90;;
59872;SDS011;50750;51.636;4.948;2022-10-16T02:50:32;1.80;;;1.00;;
59872;SDS011;50750;51.636;4.948;2022-10-16T02:52:59;2.00;;;0.90;;
59872;SDS011;50750;51.636;4.948;2022-10-16T02:55:25;1.60;;;0.80;;
59872;SDS011;50750;51.636;4.948;2022-10-16T02:57:53;1.70;;;0.80;;
59872;SDS011;50750;51.636;4.948;2022-10-16T03:00:20;1.80;;;0.90;;
59872;SDS011;50750;51.636;4.948;2022-10-16T03:02:47;1.70;;;0.90;;
59872;SDS011;50750;51.636;4.948;2022-10-16T03:05:14;2.00;;;0.90;;
59872;SDS011;50750;51.636;4.948;2022-10-16T03:07:41;2.10;;;1.00;;
59872;SDS011;50750;51.636;4.948;2022-10-16T03:10:08;1.50;;;0.80;;
59872;SDS011;50750;51.636;4.948;2022-10-16T03:12:34;1.60;;;0.90;;
59872;SDS011;50750;51.636;4.948;2022-10-16T03:15:01;1.60;;;0.90;;
59872;SDS011;50750;51.636;4.948;2022-10-16T03:17:27;1.70;;;0.90;;
59872;SDS011;50750;51.636;4.948;2022-10-16T03:19:54;1.60;;;0.70;;
59872;SDS011;50750;51.636;4.948;2022-10-16T03:22:20;1.20;;;0.80;;
59872;SDS011;50750;51.636;4.948;2022-10-16T03:24:47;1.40;;;0.90;;
59872;SDS011;50750;51.636;4.948;2022-10-16T03:27:13;2.50;;;0.90;;
59872;SDS011;50750;51.636;4.948;2022-10-16T03:29:39;2.00;;;0.90;;
59872;SDS011;50750;51.636;4.948;2022-10-16T03:32:06;2.00;;;0.90;;
59872;SDS011;50750;51.636;4.948;2022-10-16T03:34:32;1.20;;;0.70;;
59872;SDS011;50750;51.636;4.948;2022-10-16T03:36:59;1.80;;;0.80;;
59872;SDS011;50750;51.636;4.948;2022-10-16T03:39:25;1.60;;;0.80;;
59872;SDS011;50750;51.636;4.948;2022-10-16T03:41:52;1.70;;;0.80;;
59872;SDS011;50750;51.636;4.948;2022-10-16T03:44:18;1.50;;;0.70;;
59872;SDS011;50750;51.636;4.948;2022-10-16T03:46:45;1.40;;;0.80;;
59872;SDS011;50750;51.636;4.948;2022-10-16T03:49:11;1.70;;;0.70;;
59872;SDS011;50750;51.636;4.948;2022-10-16T03:51:37;1.50;;;0.80;;
59872;SDS011;50750;51.636;4.948;2022-10-16T03:54:04;1.60;;;0.90;;
59872;SDS011;50750;51.636;4.948;2022-10-16T03:56:31;1.60;;;0.80;;
59872;SDS011;50750;51.636;4.948;2022-10-16T03:58:57;1.60;;;0.80;;
59872;SDS011;50750;51.636;4.948;2022-10-16T04:01:24;7.50;;;1.10;;
59872;SDS011;50750;51.636;4.948;2022-10-16T04:03:50;1.80;;;0.80;;
59872;SDS011;50750;51.636;4.948;2022-10-16T04:06:17;1.50;;;0.70;;
59872;SDS011;50750;51.636;4.948;2022-10-16T04:08:43;1.60;;;0.90;;
59872;SDS011;50750;51.636;4.948;2022-10-16T04:11:10;1.40;;;0.60;;
59872;SDS011;50750;51.636;4.948;2022-10-16T04:13:36;1.20;;;0.60;;
59872;SDS011;50750;51.636;4.948;2022-10-16T04:16:03;0.90;;;0.60;;
59872;SDS011;50750;51.636;4.948;2022-10-16T04:18:30;1.40;;;0.80;;
59872;SDS011;50750;51.636;4.948;2022-10-16T04:20:56;1.60;;;0.70;;
59872;SDS011;50750;51.636;4.948;2022-10-16T04:23:23;2.10;;;0.80;;
59872;SDS011;50750;51.636;4.948;2022-10-16T04:25:50;1.40;;;0.80;;
59872;SDS011;50750;51.636;4.948;2022-10-16T04:28:17;1.50;;;0.80;;
59872;SDS011;50750;51.636;4.948;2022-10-16T04:30:43;2.40;;;0.80;;
59872;SDS011;50750;51.636;4.948;2022-10-16T04:33:10;1.30;;;0.70;;
59872;SDS011;50750;51.636;4.948;2022-10-16T04:35:36;1.70;;;0.70;;
59872;SDS011;50750;51.636;4.948;2022-10-16T04:38:03;1.60;;;0.80;;
59872;SDS011;50750;51.636;4.948;2022-10-16T04:40:29;1.30;;;0.70;;
59872;SDS011;50750;51.636;4.948;2022-10-16T04:42:59;1.30;;;0.80;;
59872;SDS011;50750;51.636;4.948;2022-10-16T04:45:25;2.00;;;0.90;;
59872;SDS011;50750;51.636;4.948;2022-10-16T04:47:52;1.00;;;0.70;;
59872;SDS011;50750;51.636;4.948;2022-10-16T04:50:18;1.60;;;0.80;;
59872;SDS011;50750;51.636;4.948;2022-10-16T04:52:44;1.80;;;0.80;;
59872;SDS011;50750;51.636;4.948;2022-10-16T04:55:11;1.60;;;0.80;;
59872;SDS011;50750;51.636;4.948;2022-10-16T04:57:38;1.50;;;0.80;;
59872;SDS011;50750;51.636;4.948;2022-10-16T05:00:05;2.70;;;0.80;;
59872;SDS011;50750;51.636;4.948;2022-10-16T05:02:32;1.50;;;0.80;;
59872;SDS011;50750;51.636;4.948;2022-10-16T05:04:58;1.50;;;0.80;;
59872;SDS011;50750;51.636;4.948;2022-10-16T05:07:24;1.40;;;0.70;;
59872;SDS011;50750;51.636;4.948;2022-10-16T05:09:51;1.00;;;0.60;;
59872;SDS011;50750;51.636;4.948;2022-10-16T05:12:17;1.40;;;0.80;;
59872;SDS011;50750;51.636;4.948;2022-10-16T05:14:44;1.80;;;0.80;;
59872;SDS011;50750;51.636;4.948;2022-10-16T05:17:10;1.50;;;0.70;;
59872;SDS011;50750;51.636;4.948;2022-10-16T05:19:37;1.10;;;0.70;;
59872;SDS011;50750;51.636;4.948;2022-10-16T05:22:03;1.20;;;0.70;;
59872;SDS011;50750;51.636;4.948;2022-10-16T05:24:29;1.10;;;0.70;;
59872;SDS011;50750;51.636;4.948;2022-10-16T05:26:56;1.50;;;0.70;;
59872;SDS011;50750;51.636;4.948;2022-10-16T05:29:22;1.40;;;0.70;;
59872;SDS011;50750;51.636;4.948;2022-10-16T05:31:50;2.10;;;0.90;;
59872;SDS011;50750;51.636;4.948;2022-10-16T05:34:17;1.30;;;0.60;;
59872;SDS011;50750;51.636;4.948;2022-10-16T05:36:44;1.40;;;0.70;;
59872;SDS011;50750;51.636;4.948;2022-10-16T05:39:11;1.50;;;0.80;;
59872;SDS011;50750;51.636;4.948;2022-10-16T05:41:39;1.50;;;0.80;;
59872;SDS011;50750;51.636;4.948;2022-10-16T05:44:06;1.40;;;0.70;;
59872;SDS011;50750;51.636;4.948;2022-10-16T05:46:32;1.00;;;0.60;;
59872;SDS011;50750;51.636;4.948;2022-10-16T05:48:59;1.60;;;0.70;;
59872;SDS011;50750;51.636;4.948;2022-10-16T05:51:26;2.40;;;0.80;;
59872;SDS011;50750;51.636;4.948;2022-10-16T05:53:52;1.40;;;0.70;;
59872;SDS011;50750;51.636;4.948;2022-10-16T05:56:19;0.90;;;0.60;;
59872;SDS011;50750;51.636;4.948;2022-10-16T05:58:45;1.00;;;0.70;;
59872;SDS011;50750;51.636;4.948;2022-10-16T06:01:13;1.30;;;0.70;;
59872;SDS011;50750;51.636;4.948;2022-10-16T06:03:41;1.10;;;0.70;;
59872;SDS011;50750;51.636;4.948;2022-10-16T06:06:18;1.50;;;0.70;;
59872;SDS011;50750;51.636;4.948;2022-10-16T06:08:47;1.20;;;0.60;;
59872;SDS011;50750;51.636;4.948;2022-10-16T06:11:16;1.50;;;0.80;;
59872;SDS011;50750;51.636;4.948;2022-10-16T06:13:54;1.20;;;0.60;;
59872;SDS011;50750;51.636;4.948;2022-10-16T06:16:23;1.90;;;0.60;;
59872;SDS011;50750;51.636;4.948;2022-10-16T06:18:54;1.30;;;0.70;;
59872;SDS011;50750;51.636;4.948;2022-10-16T06:21:26;1.30;;;0.70;;
59872;SDS011;50750;51.636;4.948;2022-10-16T06:23:54;1.50;;;0.80;;
59872;SDS011;50750;51.636;4.948;2022-10-16T06:26:22;1.00;;;0.60;;
59872;SDS011;50750;51.636;4.948;2022-10-16T06:28:51;2.20;;;0.80;;
59872;SDS011;50750;51.636;4.948;2022-10-16T06:31:17;1.40;;;0.60;;
59872;SDS011;50750;51.636;4.948;2022-10-16T06:33:44;1.20;;;0.70;;
59872;SDS011;50750;51.636;4.948;2022-10-16T06:36:13;1.50;;;0.70;;
59872;SDS011;50750;51.636;4.948;2022-10-16T06:38:41;1.60;;;0.80;;
59872;SDS011;50750;51.636;4.948;2022-10-16T06:41:09;1.40;;;0.60;;
59872;SDS011;50750;51.636;4.948;2022-10-16T06:46:05;1.10;;;0.70;;
59872;SDS011;50750;51.636;4.948;2022-10-16T06:48:36;2.20;;;0.80;;
59872;SDS011;50750;51.636;4.948;2022-10-16T06:51:07;1.00;;;0.60;;
59872;SDS011;50750;51.636;4.948;2022-10-16T06:53:36;1.40;;;0.60;;
59872;SDS011;50750;51.636;4.948;2022-10-16T06:58:40;1.80;;;0.90;;
59872;SDS011;50750;51.636;4.948;2022-10-16T07:01:08;1.20;;;0.60;;
59872;SDS011;50750;51.636;4.948;2022-10-16T07:03:36;1.10;;;0.60;;
59872;SDS011;50750;51.636;4.948;2022-10-16T07:06:05;1.40;;;0.70;;
59872;SDS011;50750;51.636;4.948;2022-10-16T07:08:34;1.40;;;0.60;;
59872;SDS011;50750;51.636;4.948;2022-10-16T07:11:02;1.20;;;0.70;;
59872;SDS011;50750;51.636;4.948;2022-10-16T07:13:34;1.70;;;0.80;;
59872;SDS011;50750;51.636;4.948;2022-10-16T07:16:05;1.20;;;0.60;;
59872;SDS011;50750;51.636;4.948;2022-10-16T07:18:39;1.20;;;0.70;;
59872;SDS011;50750;51.636;4.948;2022-10-16T07:21:07;1.10;;;0.70;;
59872;SDS011;50750;51.636;4.948;2022-10-16T07:23:35;1.40;;;0.60;;
59872;SDS011;50750;51.636;4.948;2022-10-16T07:26:02;1.40;;;0.70;;
59872;SDS011;50750;51.636;4.948;2022-10-16T07:28:29;1.50;;;0.70;;
59872;SDS011;50750;51.636;4.948;2022-10-16T07:30:59;1.50;;;0.80;;
59872;SDS011;50750;51.636;4.948;2022-10-16T07:33:32;1.70;;;0.80;;
59872;SDS011;50750;51.636;4.948;2022-10-16T07:35:59;1.80;;;0.70;;
59872;SDS011;50750;51.636;4.948;2022-10-16T07:38:25;1.40;;;0.60;;
59872;SDS011;50750;51.636;4.948;2022-10-16T07:40:59;1.00;;;0.60;;
59872;SDS011;50750;51.636;4.948;2022-10-16T07:43:27;1.70;;;0.70;;
59872;SDS011;50750;51.636;4.948;2022-10-16T07:45:54;1.20;;;0.70;;
59872;SDS011;50750;51.636;4.948;2022-10-16T07:48:21;0.90;;;0.60;;
59872;SDS011;50750;51.636;4.948;2022-10-16T07:50:49;1.20;;;0.60;;
59872;SDS011;50750;51.636;4.948;2022-10-16T07:53:16;1.10;;;0.70;;
59872;SDS011;50750;51.636;4.948;2022-10-16T07:55:42;1.90;;;0.70;;
59872;SDS011;50750;51.636;4.948;2022-10-16T07:58:09;1.00;;;0.70;;
59872;SDS011;50750;51.636;4.948;2022-10-16T08:00:36;1.20;;;0.60;;
59872;SDS011;50750;51.636;4.948;2022-10-16T08:03:03;1.20;;;0.70;;
59872;SDS011;50750;51.636;4.948;2022-10-16T08:05:31;1.30;;;0.60;;
59872;SDS011;50750;51.636;4.948;2022-10-16T08:07:58;1.30;;;0.70;;
59872;SDS011;50750;51.636;4.948;2022-10-16T08:10:26;2.00;;;0.80;;
59872;SDS011;50750;51.636;4.948;2022-10-16T08:12:54;2.00;;;0.80;;
59872;SDS011;50750;51.636;4.948;2022-10-16T08:15:21;1.20;;;0.70;;
59872;SDS011;50750;51.636;4.948;2022-10-16T08:18:04;1.30;;;0.70;;
59872;SDS011;50750;51.636;4.948;2022-10-16T08:20:31;1.30;;;0.60;;
59872;SDS011;50750;51.636;4.948;2022-10-16T08:23:01;1.30;;;0.60;;
59872;SDS011;50750;51.636;4.948;2022-10-16T08:25:28;1.30;;;0.70;;
59872;SDS011;50750;51.636;4.948;2022-10-16T08:27:55;1.60;;;0.70;;
59872;SDS011;50750;51.636;4.948;2022-10-16T08:30:22;1.30;;;0.70;;
59872;SDS011;50750;51.636;4.948;2022-10-16T08:32:49;2.80;;;0.80;;
59872;SDS011;50750;51.636;4.948;2022-10-16T08:35:16;1.70;;;0.70;;
59872;SDS011;50750;51.636;4.948;2022-10-16T08:37:43;2.10;;;0.70;;
59872;SDS011;50750;51.636;4.948;2022-10-16T08:40:16;1.90;;;0.70;;
59872;SDS011;50750;51.636;4.948;2022-10-16T08:48:23;1.70;;;0.70;;
59872;SDS011;50750;51.636;4.948;2022-10-16T08:50:56;3.50;;;0.80;;
59872;SDS011;50750;51.636;4.948;2022-10-16T08:53:26;1.30;;;0.70;;
59872;SDS011;50750;51.636;4.948;2022-10-16T08:58:29;1.90;;;0.80;;
59872;SDS011;50750;51.636;4.948;2022-10-16T09:00:58;1.10;;;0.60;;
59872;SDS011;50750;51.636;4.948;2022-10-16T09:17:20;2.30;;;0.70;;
59872;SDS011;50750;51.636;4.948;2022-10-16T09:20:02;2.30;;;0.70;;
59872;SDS011;50750;51.636;4.948;2022-10-16T09:22:52;1.10;;;0.70;;
59872;SDS011;50750;51.636;4.948;2022-10-16T09:25:43;1.70;;;0.70;;
59872;SDS011;50750;51.636;4.948;2022-10-16T09:28:16;2.10;;;1.00;;
59872;SDS011;50750;51.636;4.948;2022-10-16T09:30:44;1.30;;;0.70;;
59872;SDS011;50750;51.636;4.948;2022-10-16T09:33:12;2.70;;;0.80;;
59872;SDS011;50750;51.636;4.948;2022-10-16T09:35:44;2.20;;;0.80;;
59872;SDS011;50750;51.636;4.948;2022-10-16T09:38:29;2.20;;;0.80;;
59872;SDS011;50750;51.636;4.948;2022-10-16T09:40:57;3.30;;;1.10;;
59872;SDS011;50750;51.636;4.948;2022-10-16T09:43:26;1.40;;;0.80;;
59872;SDS011;50750;51.636;4.948;2022-10-16T09:46:02;1.90;;;0.70;;
59872;SDS011;50750;51.636;4.948;2022-10-16T09:51:44;2.50;;;0.80;;
59872;SDS011;50750;51.636;4.948;2022-10-16T09:56:36;3.70;;;1.00;;
59872;SDS011;50750;51.636;4.948;2022-10-16T10:04:16;4.30;;;1.00;;
59872;SDS011;50750;51.636;4.948;2022-10-16T10:06:46;3.20;;;1.10;;
59872;SDS011;50750;51.636;4.948;2022-10-16T10:09:28;2.80;;;0.90;;
59872;SDS011;50750;51.636;4.948;2022-10-16T10:11:59;4.10;;;1.00;;
59872;SDS011;50750;51.636;4.948;2022-10-16T10:17:12;2.70;;;0.90;;
59872;SDS011;50750;51.636;4.948;2022-10-16T10:19:42;6.10;;;1.10;;
59872;SDS011;50750;51.636;4.948;2022-10-16T10:22:16;4.00;;;1.20;;
59872;SDS011;50750;51.636;4.948;2022-10-16T10:24:59;2.50;;;0.80;;
59872;SDS011;50750;51.636;4.948;2022-10-16T10:28:16;4.10;;;0.90;;
59872;SDS011;50750;51.636;4.948;2022-10-16T10:30:29;2.40;;;0.80;;
59872;SDS011;50750;51.636;4.948;2022-10-16T10:39:00;2.40;;;0.90;;
59872;SDS011;50750;51.636;4.948;2022-10-16T10:41:39;3.20;;;1.00;;
59872;SDS011;50750;51.636;4.948;2022-10-16T10:46:50;3.80;;;1.00;;
59872;SDS011;50750;51.636;4.948;2022-10-16T10:49:31;4.50;;;1.10;;
59872;SDS011;50750;51.636;4.948;2022-10-16T11:06:00;2.10;;;0.80;;
59872;SDS011;50750;51.636;4.948;2022-10-16T11:11:09;2.50;;;0.90;;
59872;SDS011;50750;51.636;4.948;2022-10-16T11:17:08;2.80;;;0.90;;
59872;SDS011;50750;51.636;4.948;2022-10-16T11:19:45;4.80;;;1.20;;
59872;SDS011;50750;51.636;4.948;2022-10-16T11:22:20;2.20;;;0.70;;
59872;SDS011;50750;51.636;4.948;2022-10-16T11:25:02;3.10;;;0.90;;
59872;SDS011;50750;51.636;4.948;2022-10-16T11:31:08;3.00;;;1.00;;
59872;SDS011;50750;51.636;4.948;2022-10-16T11:33:40;2.80;;;0.80;;
59872;SDS011;50750;51.636;4.948;2022-10-16T11:36:33;2.10;;;0.90;;
59872;SDS011;50750;51.636;4.948;2022-10-16T11:39:24;3.20;;;1.10;;
59872;SDS011;50750;51.636;4.948;2022-10-16T11:42:07;2.50;;;0.70;;
59872;SDS011;50750;51.636;4.948;2022-10-16T11:50:21;3.10;;;0.80;;
59872;SDS011;50750;51.636;4.948;2022-10-16T11:52:53;3.40;;;0.90;;
59872;SDS011;50750;51.636;4.948;2022-10-16T11:55:31;2.70;;;0.80;;
59872;SDS011;50750;51.636;4.948;2022-10-16T11:58:50;2.60;;;0.80;;
59872;SDS011;50750;51.636;4.948;2022-10-16T12:01:19;1.90;;;0.80;;
59872;SDS011;50750;51.636;4.948;2022-10-16T12:03:54;3.00;;;0.90;;
59872;SDS011;50750;51.636;4.948;2022-10-16T12:09:28;2.70;;;0.90;;
59872;SDS011;50750;51.636;4.948;2022-10-16T12:16:54;2.60;;;0.80;;
59872;SDS011;50750;51.636;4.948;2022-10-16T12:19:21;2.20;;;0.80;;
59872;SDS011;50750;51.636;4.948;2022-10-16T12:21:49;3.00;;;0.90;;
59872;SDS011;50750;51.636;4.948;2022-10-16T12:24:36;4.10;;;0.90;;
59872;SDS011;50750;51.636;4.948;2022-10-16T12:30:14;2.20;;;0.80;;
59872;SDS011;50750;51.636;4.948;2022-10-16T12:32:58;3.10;;;0.80;;
59872;SDS011;50750;51.636;4.948;2022-10-16T12:35:29;2.10;;;0.80;;
59872;SDS011;50750;51.636;4.948;2022-10-16T12:38:05;2.00;;;0.90;;
59872;SDS011;50750;51.636;4.948;2022-10-16T12:40:35;2.80;;;0.80;;
59872;SDS011;50750;51.636;4.948;2022-10-16T12:43:23;3.70;;;1.00;;
59872;SDS011;50750;51.636;4.948;2022-10-16T12:46:00;2.80;;;0.80;;
59872;SDS011;50750;51.636;4.948;2022-10-16T12:48:47;2.90;;;0.80;;
59872;SDS011;50750;51.636;4.948;2022-10-16T12:51:25;3.80;;;0.90;;
59872;SDS011;50750;51.636;4.948;2022-10-16T12:54:03;2.50;;;0.90;;
59872;SDS011;50750;51.636;4.948;2022-10-16T12:56:34;2.10;;;0.80;;
59872;SDS011;50750;51.636;4.948;2022-10-16T13:18:59;3.40;;;0.90;;
59872;SDS011;50750;51.636;4.948;2022-10-16T13:30:30;2.40;;;0.90;;
59872;SDS011;50750;51.636;4.948;2022-10-16T13:33:04;2.90;;;0.70;;
59872;SDS011;50750;51.636;4.948;2022-10-16T13:35:46;2.40;;;0.90;;
59872;SDS011;50750;51.636;4.948;2022-10-16T13:38:17;2.10;;;0.90;;
59872;SDS011;50750;51.636;4.948;2022-10-16T13:43:17;2.20;;;0.70;;
59872;SDS011;50750;51.636;4.948;2022-10-16T13:45:58;2.50;;;0.80;;
59872;SDS011;50750;51.636;4.948;2022-10-16T13:48:28;3.00;;;1.20;;
59872;SDS011;50750;51.636;4.948;2022-10-16T13:51:03;3.20;;;1.10;;
59872;SDS011;50750;51.636;4.948;2022-10-16T13:53:39;2.30;;;0.70;;
59872;SDS011;50750;51.636;4.948;2022-10-16T13:56:09;2.00;;;0.80;;
59872;SDS011;50750;51.636;4.948;2022-10-16T13:58:38;2.70;;;0.90;;
59872;SDS011;50750;51.636;4.948;2022-10-16T14:01:06;1.60;;;0.70;;
59872;SDS011;50750;51.636;4.948;2022-10-16T14:03:43;2.10;;;0.70;;
59872;SDS011;50750;51.636;4.948;2022-10-16T14:06:12;3.60;;;0.90;;
59872;SDS011;50750;51.636;4.948;2022-10-16T14:08:42;3.00;;;0.90;;
59872;SDS011;50750;51.636;4.948;2022-10-16T14:11:11;2.60;;;0.90;;
59872;SDS011;50750;51.636;4.948;2022-10-16T14:13:39;3.00;;;1.10;;
59872;SDS011;50750;51.636;4.948;2022-10-16T14:16:10;2.30;;;0.80;;
59872;SDS011;50750;51.636;4.948;2022-10-16T14:18:45;2.10;;;0.90;;
59872;SDS011;50750;51.636;4.948;2022-10-16T14:21:17;1.50;;;0.70;;
59872;SDS011;50750;51.636;4.948;2022-10-16T14:23:44;2.90;;;0.80;;
59872;SDS011;50750;51.636;4.948;2022-10-16T14:28:39;2.10;;;0.90;;
59872;SDS011;50750;51.636;4.948;2022-10-16T14:33:45;1.70;;;0.60;;
59872;SDS011;50750;51.636;4.948;2022-10-16T14:36:12;1.90;;;0.70;;
59872;SDS011;50750;51.636;4.948;2022-10-16T14:38:41;2.60;;;0.70;;
59872;SDS011;50750;51.636;4.948;2022-10-16T14:41:14;2.10;;;0.70;;
59872;SDS011;50750;51.636;4.948;2022-10-16T14:43:42;2.20;;;0.90;;
59872;SDS011;50750;51.636;4.948;2022-10-16T14:46:12;1.80;;;0.70;;
59872;SDS011;50750;51.636;4.948;2022-10-16T14:48:41;3.70;;;1.10;;
59872;SDS011;50750;51.636;4.948;2022-10-16T14:51:19;1.30;;;0.70;;
59872;SDS011;50750;51.636;4.948;2022-10-16T14:53:46;2.60;;;0.80;;
59872;SDS011;50750;51.636;4.948;2022-10-16T14:56:19;1.90;;;0.80;;
59872;SDS011;50750;51.636;4.948;2022-10-16T14:58:51;2.00;;;0.80;;
59872;SDS011;50750;51.636;4.948;2022-10-16T15:01:19;2.50;;;0.80;;
59872;SDS011;50750;51.636;4.948;2022-10-16T15:03:46;1.50;;;0.60;;
59872;SDS011;50750;51.636;4.948;2022-10-16T15:06:16;1.90;;;0.80;;
59872;SDS011;50750;51.636;4.948;2022-10-16T15:08:43;3.10;;;0.70;;
59872;SDS011;50750;51.636;4.948;2022-10-16T15:11:11;2.20;;;0.90;;
59872;SDS011;50750;51.636;4.948;2022-10-16T15:13:39;1.50;;;0.70;;
59872;SDS011;50750;51.636;4.948;2022-10-16T15:16:10;2.30;;;0.80;;
59872;SDS011;50750;51.636;4.948;2022-10-16T15:18:37;1.40;;;0.70;;
59872;SDS011;50750;51.636;4.948;2022-10-16T15:21:04;1.20;;;0.60;;
59872;SDS011;50750;51.636;4.948;2022-10-16T15:23:31;1.80;;;0.80;;
59872;SDS011;50750;51.636;4.948;2022-10-16T15:25:57;0.90;;;0.60;;
59872;SDS011;50750;51.636;4.948;2022-10-16T15:28:25;1.90;;;0.80;;
59872;SDS011;50750;51.636;4.948;2022-10-16T15:30:52;1.10;;;0.70;;
59872;SDS011;50750;51.636;4.948;2022-10-16T15:33:22;2.20;;;0.80;;
59872;SDS011;50750;51.636;4.948;2022-10-16T15:35:51;1.70;;;0.70;;
59872;SDS011;50750;51.636;4.948;2022-10-16T15:38:19;1.30;;;0.70;;
59872;SDS011;50750;51.636;4.948;2022-10-16T15:40:47;0.60;;;0.50;;
59872;SDS011;50750;51.636;4.948;2022-10-16T15:43:14;2.50;;;0.90;;
59872;SDS011;50750;51.636;4.948;2022-10-16T15:45:41;1.50;;;0.70;;
59872;SDS011;50750;51.636;4.948;2022-10-16T15:48:11;1.30;;;0.60;;
59872;SDS011;50750;51.636;4.948;2022-10-16T15:50:40;1.70;;;0.70;;
59872;SDS011;50750;51.636;4.948;2022-10-16T15:53:06;2.90;;;0.80;;
59872;SDS011;50750;51.636;4.948;2022-10-16T15:55:33;2.50;;;0.90;;
59872;SDS011;50750;51.636;4.948;2022-10-16T15:58:00;2.00;;;0.80;;
59872;SDS011;50750;51.636;4.948;2022-10-16T16:00:26;1.40;;;0.60;;
59872;SDS011;50750;51.636;4.948;2022-10-16T16:02:53;1.50;;;0.60;;
59872;SDS011;50750;51.636;4.948;2022-10-16T16:05:20;2.20;;;0.80;;
59872;SDS011;50750;51.636;4.948;2022-10-16T16:07:48;1.40;;;0.70;;
59872;SDS011;50750;51.636;4.948;2022-10-16T16:10:15;1.90;;;0.70;;
59872;SDS011;50750;51.636;4.948;2022-10-16T16:12:42;2.10;;;0.70;;
59872;SDS011;50750;51.636;4.948;2022-10-16T16:15:09;1.90;;;0.70;;
59872;SDS011;50750;51.636;4.948;2022-10-16T16:17:36;2.10;;;0.70;;
59872;SDS011;50750;51.636;4.948;2022-10-16T16:20:03;1.60;;;0.80;;
59872;SDS011;50750;51.636;4.948;2022-10-16T16:22:31;1.30;;;0.70;;
59872;SDS011;50750;51.636;4.948;2022-10-16T16:24:57;2.20;;;0.90;;
59872;SDS011;50750;51.636;4.948;2022-10-16T16:27:24;2.00;;;0.80;;
59872;SDS011;50750;51.636;4.948;2022-10-16T16:29:55;1.20;;;0.60;;
59872;SDS011;50750;51.636;4.948;2022-10-16T16:32:22;1.20;;;0.70;;
59872;SDS011;50750;51.636;4.948;2022-10-16T16:34:48;1.20;;;0.60;;
59872;SDS011;50750;51.636;4.948;2022-10-16T16:37:15;2.40;;;0.70;;
59872;SDS011;50750;51.636;4.948;2022-10-16T16:39:41;1.30;;;0.60;;
59872;SDS011;50750;51.636;4.948;2022-10-16T16:42:08;1.50;;;0.80;;
59872;SDS011;50750;51.636;4.948;2022-10-16T16:44:36;1.50;;;0.70;;
59872;SDS011;50750;51.636;4.948;2022-10-16T16:47:04;1.70;;;0.70;;
59872;SDS011;50750;51.636;4.948;2022-10-16T16:49:31;1.20;;;0.60;;
59872;SDS011;50750;51.636;4.948;2022-10-16T16:51:58;1.10;;;0.60;;
59872;SDS011;50750;51.636;4.948;2022-10-16T16:54:24;2.50;;;0.90;;
59872;SDS011;50750;51.636;4.948;2022-10-16T16:56:51;1.60;;;0.70;;
59872;SDS011;50750;51.636;4.948;2022-10-16T16:59:18;1.20;;;0.60;;
59872;SDS011;50750;51.636;4.948;2022-10-16T17:01:49;1.90;;;0.70;;
59872;SDS011;50750;51.636;4.948;2022-10-16T17:04:17;1.50;;;0.60;;
59872;SDS011;50750;51.636;4.948;2022-10-16T17:06:45;1.10;;;0.50;;
59872;SDS011;50750;51.636;4.948;2022-10-16T17:09:11;1.60;;;0.70;;
59872;SDS011;50750;51.636;4.948;2022-10-16T17:11:41;1.90;;;0.80;;
59872;SDS011;50750;51.636;4.948;2022-10-16T17:14:10;1.60;;;0.70;;
59872;SDS011;50750;51.636;4.948;2022-10-16T17:16:38;1.60;;;0.70;;
59872;SDS011;50750;51.636;4.948;2022-10-16T17:19:06;1.80;;;0.80;;
59872;SDS011;50750;51.636;4.948;2022-10-16T17:21:34;1.50;;;0.60;;